sensor_id;sensor_type;location;lat;lon;timestamp;temperature;humidity
61641;HTU21D;62201;49.966;8.342;2023-04-25T00:01:21;8.41;118.99
61641;HTU21D;62201;49.966;8.342;2023-04-25T00:03:47;8.42;118.99
61641;HTU21D;62201;49.966;8.342;2023-04-25T00:06:12;8.41;118.99
61641;HTU21D;62201;49.966;8.342;2023-04-25T00:08:38;8.41;118.99
61641;HTU21D;62201;49.966;8.342;2023-04-25T00:11:04;8.43;118.99
61641;HTU21D;62201;49.966;8.342;2023-04-25T00:13:29;8.43;118.99
61641;HTU21D;62201;49.966;8.342;2023-04-25T00:15:55;8.45;118.99
61641;HTU21D;62201;49.966;8.342;2023-04-25T00:18:21;8.44;118.99
61641;HTU21D;62201;49.966;8.342;2023-04-25T00:20:47;8.45;118.99
61641;HTU21D;62201;49.966;8.342;2023-04-25T00:23:16;8.45;118.99
61641;HTU21D;62201;49.966;8.342;2023-04-25T00:25:45;8.44;118.99
61641;HTU21D;62201;49.966;8.342;2023-04-25T00:28:11;8.46;118.99
61641;HTU21D;62201;49.966;8.342;2023-04-25T00:30:37;8.47;118.99
61641;HTU21D;62201;49.966;8.342;2023-04-25T00:33:02;8.50;118.99
61641;HTU21D;62201;49.966;8.342;2023-04-25T00:35:28;8.52;118.99
61641;HTU21D;62201;49.966;8.342;2023-04-25T00:37:54;8.52;118.99
61641;HTU21D;62201;49.966;8.342;2023-04-25T00:40:20;8.50;118.99
61641;HTU21D;62201;49.966;8.342;2023-04-25T00:42:46;8.51;118.99
61641;HTU21D;62201;49.966;8.342;2023-04-25T00:45:13;8.53;118.99
61641;HTU21D;62201;49.966;8.342;2023-04-25T00:47:40;8.52;118.99
61641;HTU21D;62201;49.966;8.342;2023-04-25T00:50:06;8.55;118.99
61641;HTU21D;62201;49.966;8.342;2023-04-25T00:52:32;8.55;118.99
61641;HTU21D;62201;49.966;8.342;2023-04-25T00:54:58;8.56;118.99
61641;HTU21D;62201;49.966;8.342;2023-04-25T00:57:23;8.59;118.99
61641;HTU21D;62201;49.966;8.342;2023-04-25T00:59:51;8.59;118.99
61641;HTU21D;62201;49.966;8.342;2023-04-25T01:02:17;8.62;118.99
61641;HTU21D;62201;49.966;8.342;2023-04-25T01:04:42;8.60;118.99
61641;HTU21D;62201;49.966;8.342;2023-04-25T01:07:09;8.60;118.99
61641;HTU21D;62201;49.966;8.342;2023-04-25T01:09:35;8.62;118.99
61641;HTU21D;62201;49.966;8.342;2023-04-25T01:12:01;8.61;118.99
61641;HTU21D;62201;49.966;8.342;2023-04-25T01:14:26;8.61;118.99
61641;HTU21D;62201;49.966;8.342;2023-04-25T01:16:52;8.62;118.99
61641;HTU21D;62201;49.966;8.342;2023-04-25T01:19:18;8.61;118.99
61641;HTU21D;62201;49.966;8.342;2023-04-25T01:21:45;8.63;118.99
61641;HTU21D;62201;49.966;8.342;2023-04-25T01:24:10;8.63;118.99
61641;HTU21D;62201;49.966;8.342;2023-04-25T01:26:36;8.63;118.99
61641;HTU21D;62201;49.966;8.342;2023-04-25T01:29:03;8.62;118.99
61641;HTU21D;62201;49.966;8.342;2023-04-25T01:31:28;8.64;118.99
61641;HTU21D;62201;49.966;8.342;2023-04-25T01:33:55;8.62;118.99
61641;HTU21D;62201;49.966;8.342;2023-04-25T01:36:21;8.61;118.99
61641;HTU21D;62201;49.966;8.342;2023-04-25T01:38:47;8.63;118.99
61641;HTU21D;62201;49.966;8.342;2023-04-25T01:41:13;8.63;118.99
61641;HTU21D;62201;49.966;8.342;2023-04-25T01:43:38;8.62;118.99
61641;HTU21D;62201;49.966;8.342;2023-04-25T01:46:04;8.64;118.99
61641;HTU21D;62201;49.966;8.342;2023-04-25T01:48:29;8.63;118.99
61641;HTU21D;62201;49.966;8.342;2023-04-25T01:50:55;8.64;118.99
61641;HTU21D;62201;49.966;8.342;2023-04-25T01:53:20;8.64;118.99
61641;HTU21D;62201;49.966;8.342;2023-04-25T01:55:46;8.64;118.99
61641;HTU21D;62201;49.966;8.342;2023-04-25T01:58:11;8.62;118.99
61641;HTU21D;62201;49.966;8.342;2023-04-25T02:00:38;8.61;118.99
61641;HTU21D;62201;49.966;8.342;2023-04-25T02:03:05;8.61;118.99
61641;HTU21D;62201;49.966;8.342;2023-04-25T02:05:37;8.61;118.99
61641;HTU21D;62201;49.966;8.342;2023-04-25T02:08:05;8.60;118.99
61641;HTU21D;62201;49.966;8.342;2023-04-25T02:10:31;8.61;118.99
61641;HTU21D;62201;49.966;8.342;2023-04-25T02:12:57;8.59;118.99
61641;HTU21D;62201;49.966;8.342;2023-04-25T02:15:23;8.58;118.99
61641;HTU21D;62201;49.966;8.342;2023-04-25T02:17:48;8.59;118.99
61641;HTU21D;62201;49.966;8.342;2023-04-25T02:20:14;8.58;118.99
61641;HTU21D;62201;49.966;8.342;2023-04-25T02:22:41;8.57;118.99
61641;HTU21D;62201;49.966;8.342;2023-04-25T02:25:07;8.57;117.87
61641;HTU21D;62201;49.966;8.342;2023-04-25T02:27:33;8.57;117.96
61641;HTU21D;62201;49.966;8.342;2023-04-25T02:29:58;8.57;118.02
61641;HTU21D;62201;49.966;8.342;2023-04-25T02:32:23;8.56;117.83
61641;HTU21D;62201;49.966;8.342;2023-04-25T02:34:49;8.55;118.67
61641;HTU21D;62201;49.966;8.342;2023-04-25T02:37:14;8.53;118.86
61641;HTU21D;62201;49.966;8.342;2023-04-25T02:39:40;8.51;116.76
61641;HTU21D;62201;49.966;8.342;2023-04-25T02:42:05;8.52;118.68
61641;HTU21D;62201;49.966;8.342;2023-04-25T02:44:30;8.50;117.09
61641;HTU21D;62201;49.966;8.342;2023-04-25T02:46:56;8.51;116.41
61641;HTU21D;62201;49.966;8.342;2023-04-25T02:49:21;8.51;114.95
61641;HTU21D;62201;49.966;8.342;2023-04-25T02:51:46;8.48;115.54
61641;HTU21D;62201;49.966;8.342;2023-04-25T02:54:12;8.49;114.87
61641;HTU21D;62201;49.966;8.342;2023-04-25T02:56:37;8.50;117.02
61641;HTU21D;62201;49.966;8.342;2023-04-25T02:59:03;8.47;116.51
61641;HTU21D;62201;49.966;8.342;2023-04-25T03:01:28;8.47;116.73
61641;HTU21D;62201;49.966;8.342;2023-04-25T03:03:53;8.43;116.82
61641;HTU21D;62201;49.966;8.342;2023-04-25T03:06:19;8.44;115.26
61641;HTU21D;62201;49.966;8.342;2023-04-25T03:08:44;8.42;116.54
61641;HTU21D;62201;49.966;8.342;2023-04-25T03:11:10;8.41;117.41
61641;HTU21D;62201;49.966;8.342;2023-04-25T03:13:36;8.38;118.36
61641;HTU21D;62201;49.966;8.342;2023-04-25T03:16:01;8.37;115.94
61641;HTU21D;62201;49.966;8.342;2023-04-25T03:18:26;8.38;115.63
61641;HTU21D;62201;49.966;8.342;2023-04-25T03:20:52;8.38;115.09
61641;HTU21D;62201;49.966;8.342;2023-04-25T03:23:17;8.41;116.51
61641;HTU21D;62201;49.966;8.342;2023-04-25T03:25:42;8.39;115.12
61641;HTU21D;62201;49.966;8.342;2023-04-25T03:28:08;8.41;116.14
61641;HTU21D;62201;49.966;8.342;2023-04-25T03:30:33;8.41;116.70
61641;HTU21D;62201;49.966;8.342;2023-04-25T03:32:59;8.36;116.00
61641;HTU21D;62201;49.966;8.342;2023-04-25T03:35:24;8.38;114.88
61641;HTU21D;62201;49.966;8.342;2023-04-25T03:37:50;8.41;115.86
61641;HTU21D;62201;49.966;8.342;2023-04-25T03:40:15;8.39;115.55
61641;HTU21D;62201;49.966;8.342;2023-04-25T03:42:40;8.41;117.05
61641;HTU21D;62201;49.966;8.342;2023-04-25T03:45:06;8.36;117.05
61641;HTU21D;62201;49.966;8.342;2023-04-25T03:47:32;8.34;118.08
61641;HTU21D;62201;49.966;8.342;2023-04-25T03:49:57;8.35;118.82
61641;HTU21D;62201;49.966;8.342;2023-04-25T03:52:23;8.34;118.99
61641;HTU21D;62201;49.966;8.342;2023-04-25T03:54:48;8.30;118.79
61641;HTU21D;62201;49.966;8.342;2023-04-25T03:57:14;8.30;118.69
61641;HTU21D;62201;49.966;8.342;2023-04-25T03:59:39;8.31;117.83
61641;HTU21D;62201;49.966;8.342;2023-04-25T04:02:05;8.31;118.53
61641;HTU21D;62201;49.966;8.342;2023-04-25T04:04:30;8.33;118.19
61641;HTU21D;62201;49.966;8.342;2023-04-25T04:06:55;8.33;113.58
61641;HTU21D;62201;49.966;8.342;2023-04-25T04:09:21;8.33;109.15
61641;HTU21D;62201;49.966;8.342;2023-04-25T04:11:47;8.33;106.82
61641;HTU21D;62201;49.966;8.342;2023-04-25T04:14:12;8.32;103.26
61641;HTU21D;62201;49.966;8.342;2023-04-25T04:16:38;8.32;104.08
61641;HTU21D;62201;49.966;8.342;2023-04-25T04:19:03;8.30;101.86
61641;HTU21D;62201;49.966;8.342;2023-04-25T04:21:29;8.28;95.56
61641;HTU21D;62201;49.966;8.342;2023-04-25T04:23:55;8.24;95.09
61641;HTU21D;62201;49.966;8.342;2023-04-25T04:26:21;8.19;89.73
61641;HTU21D;62201;49.966;8.342;2023-04-25T04:28:52;8.17;89.25
61641;HTU21D;62201;49.966;8.342;2023-04-25T04:31:19;8.12;88.18
61641;HTU21D;62201;49.966;8.342;2023-04-25T04:33:45;8.07;89.76
61641;HTU21D;62201;49.966;8.342;2023-04-25T04:36:11;8.03;90.15
61641;HTU21D;62201;49.966;8.342;2023-04-25T04:38:37;8.00;90.39
61641;HTU21D;62201;49.966;8.342;2023-04-25T04:41:02;7.93;89.93
61641;HTU21D;62201;49.966;8.342;2023-04-25T04:43:28;7.90;89.92
61641;HTU21D;62201;49.966;8.342;2023-04-25T04:45:54;7.86;88.94
61641;HTU21D;62201;49.966;8.342;2023-04-25T04:48:21;7.83;88.44
61641;HTU21D;62201;49.966;8.342;2023-04-25T04:50:47;7.77;87.86
61641;HTU21D;62201;49.966;8.342;2023-04-25T04:53:12;7.74;88.56
61641;HTU21D;62201;49.966;8.342;2023-04-25T04:55:38;7.69;87.69
61641;HTU21D;62201;49.966;8.342;2023-04-25T04:58:03;7.63;89.24
61641;HTU21D;62201;49.966;8.342;2023-04-25T05:00:29;7.58;87.89
61641;HTU21D;62201;49.966;8.342;2023-04-25T05:02:55;7.54;89.86
61641;HTU21D;62201;49.966;8.342;2023-04-25T05:05:21;7.49;90.82
61641;HTU21D;62201;49.966;8.342;2023-04-25T05:07:46;7.45;90.28
61641;HTU21D;62201;49.966;8.342;2023-04-25T05:10:11;7.42;91.82
61641;HTU21D;62201;49.966;8.342;2023-04-25T05:12:37;7.42;92.34
61641;HTU21D;62201;49.966;8.342;2023-04-25T05:15:02;7.42;92.70
61641;HTU21D;62201;49.966;8.342;2023-04-25T05:17:28;7.43;93.03
61641;HTU21D;62201;49.966;8.342;2023-04-25T05:19:53;7.49;93.40
61641;HTU21D;62201;49.966;8.342;2023-04-25T05:22:18;7.57;93.61
61641;HTU21D;62201;49.966;8.342;2023-04-25T05:24:44;7.60;90.66
61641;HTU21D;62201;49.966;8.342;2023-04-25T05:27:09;7.68;90.76
61641;HTU21D;62201;49.966;8.342;2023-04-25T05:29:34;7.70;88.93
61641;HTU21D;62201;49.966;8.342;2023-04-25T05:32:00;7.75;87.00
61641;HTU21D;62201;49.966;8.342;2023-04-25T05:34:25;7.75;87.44
61641;HTU21D;62201;49.966;8.342;2023-04-25T05:36:51;7.82;87.92
61641;HTU21D;62201;49.966;8.342;2023-04-25T05:39:16;7.87;87.76
61641;HTU21D;62201;49.966;8.342;2023-04-25T05:41:42;7.92;88.30
61641;HTU21D;62201;49.966;8.342;2023-04-25T05:44:08;7.90;85.98
61641;HTU21D;62201;49.966;8.342;2023-04-25T05:46:33;7.92;86.22
61641;HTU21D;62201;49.966;8.342;2023-04-25T05:48:59;7.96;85.86
61641;HTU21D;62201;49.966;8.342;2023-04-25T05:51:24;7.94;84.81
61641;HTU21D;62201;49.966;8.342;2023-04-25T05:53:49;7.98;85.25
61641;HTU21D;62201;49.966;8.342;2023-04-25T05:56:15;8.07;86.33
61641;HTU21D;62201;49.966;8.342;2023-04-25T05:58:40;8.04;83.85
61641;HTU21D;62201;49.966;8.342;2023-04-25T06:01:06;8.07;84.48
61641;HTU21D;62201;49.966;8.342;2023-04-25T06:03:31;8.09;83.22
61641;HTU21D;62201;49.966;8.342;2023-04-25T06:05:57;8.07;82.93
61641;HTU21D;62201;49.966;8.342;2023-04-25T06:08:22;8.21;83.07
61641;HTU21D;62201;49.966;8.342;2023-04-25T06:10:47;8.38;82.67
61641;HTU21D;62201;49.966;8.342;2023-04-25T06:13:13;8.41;80.46
61641;HTU21D;62201;49.966;8.342;2023-04-25T06:15:39;8.32;79.95
61641;HTU21D;62201;49.966;8.342;2023-04-25T06:18:04;8.33;80.25
61641;HTU21D;62201;49.966;8.342;2023-04-25T06:20:30;8.31;80.68
61641;HTU21D;62201;49.966;8.342;2023-04-25T06:22:55;8.34;80.17
61641;HTU21D;62201;49.966;8.342;2023-04-25T06:25:20;8.31;80.30
61641;HTU21D;62201;49.966;8.342;2023-04-25T06:27:46;8.35;80.43
61641;HTU21D;62201;49.966;8.342;2023-04-25T06:30:11;8.38;80.33
61641;HTU21D;62201;49.966;8.342;2023-04-25T06:32:38;8.44;80.42
61641;HTU21D;62201;49.966;8.342;2023-04-25T06:35:04;8.49;80.63
61641;HTU21D;62201;49.966;8.342;2023-04-25T06:37:29;8.62;78.76
61641;HTU21D;62201;49.966;8.342;2023-04-25T06:39:55;8.72;78.40
61641;HTU21D;62201;49.966;8.342;2023-04-25T06:42:20;8.87;77.46
61641;HTU21D;62201;49.966;8.342;2023-04-25T06:44:46;8.88;76.73
61641;HTU21D;62201;49.966;8.342;2023-04-25T06:47:11;8.86;75.54
61641;HTU21D;62201;49.966;8.342;2023-04-25T06:49:36;8.91;76.23
61641;HTU21D;62201;49.966;8.342;2023-04-25T06:52:02;9.07;75.95
61641;HTU21D;62201;49.966;8.342;2023-04-25T06:54:28;9.23;75.79
61641;HTU21D;62201;49.966;8.342;2023-04-25T06:56:55;9.16;74.31
61641;HTU21D;62201;49.966;8.342;2023-04-25T06:59:20;9.12;75.05
61641;HTU21D;62201;49.966;8.342;2023-04-25T07:01:46;9.40;74.81
61641;HTU21D;62201;49.966;8.342;2023-04-25T07:04:11;9.53;73.47
61641;HTU21D;62201;49.966;8.342;2023-04-25T07:06:39;9.60;73.21
61641;HTU21D;62201;49.966;8.342;2023-04-25T07:09:10;9.61;74.25
61641;HTU21D;62201;49.966;8.342;2023-04-25T07:11:36;10.01;72.45
61641;HTU21D;62201;49.966;8.342;2023-04-25T07:14:02;10.06;70.90
61641;HTU21D;62201;49.966;8.342;2023-04-25T07:16:28;10.13;70.67
61641;HTU21D;62201;49.966;8.342;2023-04-25T07:18:53;10.14;70.24
61641;HTU21D;62201;49.966;8.342;2023-04-25T07:21:18;10.22;70.45
61641;HTU21D;62201;49.966;8.342;2023-04-25T07:23:44;9.92;69.45
61641;HTU21D;62201;49.966;8.342;2023-04-25T07:26:09;9.99;69.86
61641;HTU21D;62201;49.966;8.342;2023-04-25T07:28:35;10.12;69.91
61641;HTU21D;62201;49.966;8.342;2023-04-25T07:31:00;10.16;69.71
61641;HTU21D;62201;49.966;8.342;2023-04-25T07:33:27;10.28;69.55
61641;HTU21D;62201;49.966;8.342;2023-04-25T07:35:52;10.43;69.25
61641;HTU21D;62201;49.966;8.342;2023-04-25T07:38:18;10.51;69.32
61641;HTU21D;62201;49.966;8.342;2023-04-25T07:40:43;10.58;68.37
61641;HTU21D;62201;49.966;8.342;2023-04-25T07:43:09;10.63;68.35
61641;HTU21D;62201;49.966;8.342;2023-04-25T07:45:34;10.69;67.18
61641;HTU21D;62201;49.966;8.342;2023-04-25T07:47:59;10.42;68.87
61641;HTU21D;62201;49.966;8.342;2023-04-25T07:50:25;10.58;68.24
61641;HTU21D;62201;49.966;8.342;2023-04-25T07:52:50;10.79;67.52
61641;HTU21D;62201;49.966;8.342;2023-04-25T07:55:16;10.89;66.24
61641;HTU21D;62201;49.966;8.342;2023-04-25T07:57:41;10.87;64.68
61641;HTU21D;62201;49.966;8.342;2023-04-25T08:00:07;10.82;65.28
61641;HTU21D;62201;49.966;8.342;2023-04-25T08:02:34;10.73;63.71
61641;HTU21D;62201;49.966;8.342;2023-04-25T08:05:00;10.73;64.24
61641;HTU21D;62201;49.966;8.342;2023-04-25T08:07:25;10.86;63.91
61641;HTU21D;62201;49.966;8.342;2023-04-25T08:09:51;10.93;63.44
61641;HTU21D;62201;49.966;8.342;2023-04-25T08:12:17;10.89;63.14
61641;HTU21D;62201;49.966;8.342;2023-04-25T08:14:43;11.10;61.63
61641;HTU21D;62201;49.966;8.342;2023-04-25T08:17:09;11.33;61.99
61641;HTU21D;62201;49.966;8.342;2023-04-25T08:19:34;11.60;59.95
61641;HTU21D;62201;49.966;8.342;2023-04-25T08:22:00;11.43;60.93
61641;HTU21D;62201;49.966;8.342;2023-04-25T08:24:25;11.29;61.70
61641;HTU21D;62201;49.966;8.342;2023-04-25T08:26:51;10.87;61.76
61641;HTU21D;62201;49.966;8.342;2023-04-25T08:29:16;10.88;62.00
61641;HTU21D;62201;49.966;8.342;2023-04-25T08:31:42;11.29;60.64
61641;HTU21D;62201;49.966;8.342;2023-04-25T08:34:07;11.66;59.80
61641;HTU21D;62201;49.966;8.342;2023-04-25T08:36:33;12.27;57.99
61641;HTU21D;62201;49.966;8.342;2023-04-25T08:38:58;12.45;56.55
61641;HTU21D;62201;49.966;8.342;2023-04-25T08:41:24;13.24;55.36
61641;HTU21D;62201;49.966;8.342;2023-04-25T08:43:51;13.31;56.03
61641;HTU21D;62201;49.966;8.342;2023-04-25T08:46:20;13.14;55.23
61641;HTU21D;62201;49.966;8.342;2023-04-25T08:48:46;13.14;55.40
61641;HTU21D;62201;49.966;8.342;2023-04-25T08:51:19;12.96;54.93
61641;HTU21D;62201;49.966;8.342;2023-04-25T08:53:48;12.37;56.45
61641;HTU21D;62201;49.966;8.342;2023-04-25T08:56:16;12.23;56.62
61641;HTU21D;62201;49.966;8.342;2023-04-25T08:58:43;12.34;55.62
61641;HTU21D;62201;49.966;8.342;2023-04-25T09:01:11;12.22;56.45
61641;HTU21D;62201;49.966;8.342;2023-04-25T09:03:36;11.93;56.61
61641;HTU21D;62201;49.966;8.342;2023-04-25T09:06:02;11.74;57.54
61641;HTU21D;62201;49.966;8.342;2023-04-25T09:08:28;11.58;58.27
61641;HTU21D;62201;49.966;8.342;2023-04-25T09:10:53;11.43;58.28
61641;HTU21D;62201;49.966;8.342;2023-04-25T09:13:27;12.19;56.61
61641;HTU21D;62201;49.966;8.342;2023-04-25T09:15:54;12.48;55.44
61641;HTU21D;62201;49.966;8.342;2023-04-25T09:18:27;12.28;55.92
61641;HTU21D;62201;49.966;8.342;2023-04-25T09:21:06;12.48;54.62
61641;HTU21D;62201;49.966;8.342;2023-04-25T09:23:40;12.76;53.34
61641;HTU21D;62201;49.966;8.342;2023-04-25T09:26:07;13.04;53.75
61641;HTU21D;62201;49.966;8.342;2023-04-25T09:28:32;13.08;54.10
61641;HTU21D;62201;49.966;8.342;2023-04-25T09:31:00;12.57;55.57
61641;HTU21D;62201;49.966;8.342;2023-04-25T09:33:30;12.21;55.81
61641;HTU21D;62201;49.966;8.342;2023-04-25T09:36:09;11.90;56.45
61641;HTU21D;62201;49.966;8.342;2023-04-25T09:38:43;11.81;57.27
61641;HTU21D;62201;49.966;8.342;2023-04-25T09:41:10;11.90;57.55
61641;HTU21D;62201;49.966;8.342;2023-04-25T09:43:36;11.85;57.97
61641;HTU21D;62201;49.966;8.342;2023-04-25T09:46:02;11.79;57.35
61641;HTU21D;62201;49.966;8.342;2023-04-25T09:48:30;11.88;57.96
61641;HTU21D;62201;49.966;8.342;2023-04-25T09:53:35;11.43;57.71
61641;HTU21D;62201;49.966;8.342;2023-04-25T09:56:03;11.40;57.95
61641;HTU21D;62201;49.966;8.342;2023-04-25T09:58:29;11.42;58.36
61641;HTU21D;62201;49.966;8.342;2023-04-25T10:00:59;11.43;58.25
61641;HTU21D;62201;49.966;8.342;2023-04-25T10:03:25;11.46;57.60
61641;HTU21D;62201;49.966;8.342;2023-04-25T10:05:52;11.39;56.83
61641;HTU21D;62201;49.966;8.342;2023-04-25T10:08:18;11.30;58.76
61641;HTU21D;62201;49.966;8.342;2023-04-25T10:10:45;11.27;59.22
61641;HTU21D;62201;49.966;8.342;2023-04-25T10:13:12;11.03;60.32
61641;HTU21D;62201;49.966;8.342;2023-04-25T10:15:40;11.26;60.51
61641;HTU21D;62201;49.966;8.342;2023-04-25T10:18:06;11.26;60.36
61641;HTU21D;62201;49.966;8.342;2023-04-25T10:20:32;11.41;58.70
61641;HTU21D;62201;49.966;8.342;2023-04-25T10:23:06;11.54;58.21
61641;HTU21D;62201;49.966;8.342;2023-04-25T10:25:33;11.67;58.16
61641;HTU21D;62201;49.966;8.342;2023-04-25T10:27:59;12.00;57.55
61641;HTU21D;62201;49.966;8.342;2023-04-25T10:30:25;12.13;57.35
61641;HTU21D;62201;49.966;8.342;2023-04-25T10:32:50;12.08;54.83
61641;HTU21D;62201;49.966;8.342;2023-04-25T10:35:19;12.62;52.56
61641;HTU21D;62201;49.966;8.342;2023-04-25T10:38:04;13.03;51.91
61641;HTU21D;62201;49.966;8.342;2023-04-25T10:40:33;13.43;51.56
61641;HTU21D;62201;49.966;8.342;2023-04-25T10:45:55;13.22;53.23
61641;HTU21D;62201;49.966;8.342;2023-04-25T10:48:28;13.18;52.77
61641;HTU21D;62201;49.966;8.342;2023-04-25T10:51:07;12.93;53.18
61641;HTU21D;62201;49.966;8.342;2023-04-25T10:53:33;12.61;54.25
61641;HTU21D;62201;49.966;8.342;2023-04-25T10:55:59;12.30;54.27
61641;HTU21D;62201;49.966;8.342;2023-04-25T10:58:24;12.44;54.17
61641;HTU21D;62201;49.966;8.342;2023-04-25T11:00:50;12.50;54.04
61641;HTU21D;62201;49.966;8.342;2023-04-25T11:03:16;12.40;53.76
61641;HTU21D;62201;49.966;8.342;2023-04-25T11:05:44;12.42;54.10
61641;HTU21D;62201;49.966;8.342;2023-04-25T11:08:13;12.40;52.71
61641;HTU21D;62201;49.966;8.342;2023-04-25T11:10:41;12.45;53.63
61641;HTU21D;62201;49.966;8.342;2023-04-25T11:13:07;12.87;52.68
61641;HTU21D;62201;49.966;8.342;2023-04-25T11:15:32;13.08;52.87
61641;HTU21D;62201;49.966;8.342;2023-04-25T11:17:57;13.16;51.95
61641;HTU21D;62201;49.966;8.342;2023-04-25T11:20:25;13.23;50.76
61641;HTU21D;62201;49.966;8.342;2023-04-25T11:22:51;13.32;50.86
61641;HTU21D;62201;49.966;8.342;2023-04-25T11:25:16;13.44;51.66
61641;HTU21D;62201;49.966;8.342;2023-04-25T11:27:53;13.50;48.63
61641;HTU21D;62201;49.966;8.342;2023-04-25T11:30:19;13.07;49.63
61641;HTU21D;62201;49.966;8.342;2023-04-25T11:32:46;12.89;50.34
61641;HTU21D;62201;49.966;8.342;2023-04-25T11:35:12;12.60;51.30
61641;HTU21D;62201;49.966;8.342;2023-04-25T11:37:41;12.58;52.24
61641;HTU21D;62201;49.966;8.342;2023-04-25T11:40:07;12.65;51.59
61641;HTU21D;62201;49.966;8.342;2023-04-25T11:42:36;12.30;52.31
61641;HTU21D;62201;49.966;8.342;2023-04-25T11:45:03;12.35;52.19
61641;HTU21D;62201;49.966;8.342;2023-04-25T11:47:30;12.41;52.66
61641;HTU21D;62201;49.966;8.342;2023-04-25T11:49:58;12.42;52.56
61641;HTU21D;62201;49.966;8.342;2023-04-25T11:52:24;12.44;52.56
61641;HTU21D;62201;49.966;8.342;2023-04-25T11:54:50;12.35;53.49
61641;HTU21D;62201;49.966;8.342;2023-04-25T11:57:19;12.44;52.96
61641;HTU21D;62201;49.966;8.342;2023-04-25T11:59:44;12.32;51.99
61641;HTU21D;62201;49.966;8.342;2023-04-25T12:02:24;11.99;51.90
61641;HTU21D;62201;49.966;8.342;2023-04-25T12:04:50;11.91;52.75
61641;HTU21D;62201;49.966;8.342;2023-04-25T12:07:15;12.16;51.80
61641;HTU21D;62201;49.966;8.342;2023-04-25T12:09:40;11.94;52.13
61641;HTU21D;62201;49.966;8.342;2023-04-25T12:12:09;11.93;52.01
61641;HTU21D;62201;49.966;8.342;2023-04-25T12:14:35;11.75;52.41
61641;HTU21D;62201;49.966;8.342;2023-04-25T12:17:02;11.54;52.72
61641;HTU21D;62201;49.966;8.342;2023-04-25T12:19:33;11.78;52.70
61641;HTU21D;62201;49.966;8.342;2023-04-25T12:22:00;11.82;53.20
61641;HTU21D;62201;49.966;8.342;2023-04-25T12:24:26;11.97;53.13
61641;HTU21D;62201;49.966;8.342;2023-04-25T12:29:27;12.27;50.91
61641;HTU21D;62201;49.966;8.342;2023-04-25T12:31:53;12.17;50.58
61641;HTU21D;62201;49.966;8.342;2023-04-25T12:34:20;12.34;49.99
61641;HTU21D;62201;49.966;8.342;2023-04-25T12:36:46;12.45;49.99
61641;HTU21D;62201;49.966;8.342;2023-04-25T12:39:19;12.66;50.81
61641;HTU21D;62201;49.966;8.342;2023-04-25T12:41:46;12.81;49.88
61641;HTU21D;62201;49.966;8.342;2023-04-25T12:44:12;12.75;48.86
61641;HTU21D;62201;49.966;8.342;2023-04-25T12:46:37;12.81;48.97
61641;HTU21D;62201;49.966;8.342;2023-04-25T12:49:04;12.88;49.37
61641;HTU21D;62201;49.966;8.342;2023-04-25T12:51:30;13.27;47.26
61641;HTU21D;62201;49.966;8.342;2023-04-25T12:53:57;13.93;46.82
61641;HTU21D;62201;49.966;8.342;2023-04-25T12:56:23;14.58;45.70
61641;HTU21D;62201;49.966;8.342;2023-04-25T12:58:49;14.24;46.07
61641;HTU21D;62201;49.966;8.342;2023-04-25T13:01:15;13.98;45.10
61641;HTU21D;62201;49.966;8.342;2023-04-25T13:03:40;13.81;45.84
61641;HTU21D;62201;49.966;8.342;2023-04-25T13:06:06;13.41;46.25
61641;HTU21D;62201;49.966;8.342;2023-04-25T13:08:32;13.07;47.02
61641;HTU21D;62201;49.966;8.342;2023-04-25T13:10:57;12.79;47.68
61641;HTU21D;62201;49.966;8.342;2023-04-25T13:13:22;12.52;48.47
61641;HTU21D;62201;49.966;8.342;2023-04-25T13:15:48;12.43;49.31
61641;HTU21D;62201;49.966;8.342;2023-04-25T13:18:15;12.29;49.96
61641;HTU21D;62201;49.966;8.342;2023-04-25T13:20:40;12.23;50.79
61641;HTU21D;62201;49.966;8.342;2023-04-25T13:23:06;12.20;50.33
61641;HTU21D;62201;49.966;8.342;2023-04-25T13:25:31;12.40;49.97
61641;HTU21D;62201;49.966;8.342;2023-04-25T13:27:56;12.36;49.56
61641;HTU21D;62201;49.966;8.342;2023-04-25T13:30:22;12.47;50.02
61641;HTU21D;62201;49.966;8.342;2023-04-25T13:32:47;12.37;48.65
61641;HTU21D;62201;49.966;8.342;2023-04-25T13:35:13;12.42;48.23
61641;HTU21D;62201;49.966;8.342;2023-04-25T13:37:39;12.53;47.24
61641;HTU21D;62201;49.966;8.342;2023-04-25T13:40:06;12.86;46.63
61641;HTU21D;62201;49.966;8.342;2023-04-25T13:42:34;13.10;46.85
61641;HTU21D;62201;49.966;8.342;2023-04-25T13:44:59;13.00;46.88
61641;HTU21D;62201;49.966;8.342;2023-04-25T13:47:25;12.80;47.23
61641;HTU21D;62201;49.966;8.342;2023-04-25T13:49:51;12.90;47.39
61641;HTU21D;62201;49.966;8.342;2023-04-25T13:52:16;12.86;46.81
61641;HTU21D;62201;49.966;8.342;2023-04-25T13:54:42;12.90;46.97
61641;HTU21D;62201;49.966;8.342;2023-04-25T13:57:07;12.93;47.05
61641;HTU21D;62201;49.966;8.342;2023-04-25T13:59:33;12.85;45.99
61641;HTU21D;62201;49.966;8.342;2023-04-25T14:01:58;12.86;46.46
61641;HTU21D;62201;49.966;8.342;2023-04-25T14:04:24;12.90;46.82
61641;HTU21D;62201;49.966;8.342;2023-04-25T14:06:50;12.97;46.59
61641;HTU21D;62201;49.966;8.342;2023-04-25T14:09:17;12.90;46.21
61641;HTU21D;62201;49.966;8.342;2023-04-25T14:11:42;12.92;46.53
61641;HTU21D;62201;49.966;8.342;2023-04-25T14:14:07;12.85;46.80
61641;HTU21D;62201;49.966;8.342;2023-04-25T14:16:34;12.79;46.60
61641;HTU21D;62201;49.966;8.342;2023-04-25T14:18:59;12.49;46.28
61641;HTU21D;62201;49.966;8.342;2023-04-25T14:21:25;12.41;46.81
61641;HTU21D;62201;49.966;8.342;2023-04-25T14:23:52;12.20;46.65
61641;HTU21D;62201;49.966;8.342;2023-04-25T14:26:17;12.26;47.26
61641;HTU21D;62201;49.966;8.342;2023-04-25T14:28:42;12.29;47.45
61641;HTU21D;62201;49.966;8.342;2023-04-25T14:31:08;12.26;47.21
61641;HTU21D;62201;49.966;8.342;2023-04-25T14:33:33;12.35;46.99
61641;HTU21D;62201;49.966;8.342;2023-04-25T14:35:59;12.52;45.36
61641;HTU21D;62201;49.966;8.342;2023-04-25T14:38:24;12.56;45.95
61641;HTU21D;62201;49.966;8.342;2023-04-25T14:40:51;12.74;46.04
61641;HTU21D;62201;49.966;8.342;2023-04-25T14:43:16;13.68;43.80
61641;HTU21D;62201;49.966;8.342;2023-04-25T14:45:42;14.91;41.69
61641;HTU21D;62201;49.966;8.342;2023-04-25T14:48:07;14.62;41.10
61641;HTU21D;62201;49.966;8.342;2023-04-25T14:50:33;14.24;42.38
61641;HTU21D;62201;49.966;8.342;2023-04-25T14:52:58;13.77;42.75
61641;HTU21D;62201;49.966;8.342;2023-04-25T14:55:26;13.38;43.64
61641;HTU21D;62201;49.966;8.342;2023-04-25T14:57:53;12.89;44.18
61641;HTU21D;62201;49.966;8.342;2023-04-25T15:00:19;12.73;44.90
61641;HTU21D;62201;49.966;8.342;2023-04-25T15:02:46;12.52;44.91
61641;HTU21D;62201;49.966;8.342;2023-04-25T15:05:12;12.44;45.66
61641;HTU21D;62201;49.966;8.342;2023-04-25T15:07:38;12.35;46.36
61641;HTU21D;62201;49.966;8.342;2023-04-25T15:10:06;12.28;46.06
61641;HTU21D;62201;49.966;8.342;2023-04-25T15:12:36;12.62;44.48
61641;HTU21D;62201;49.966;8.342;2023-04-25T15:15:02;13.00;43.61
61641;HTU21D;62201;49.966;8.342;2023-04-25T15:17:27;12.90;44.02
61641;HTU21D;62201;49.966;8.342;2023-04-25T15:19:56;13.07;43.35
61641;HTU21D;62201;49.966;8.342;2023-04-25T15:22:21;12.85;43.28